Time;durP1;ratioP1;P1;durP2;ratioP2;P2;SDS_P1;SDS_P2;PMS_P1;PMS_P2;Temp;Humidity;BMP_temperature;BMP_pressure;BME280_temperature;BME280_humidity;BME280_pressure;Samples;Min_cycle;Max_cycle;Signal;HPM_P1;HPM_P2
2021/07/26 00:02:28;;;;;;;14.95;13.13;;;;;;;22.50;54.30;98465.28;2212254;80;20913;-79
2021/07/26 00:05:28;;;;;;;11.97;9.93;;;;;;;22.48;54.23;98460.03;2212470;81;20952;-79
2021/07/26 00:08:29;;;;;;;10.80;9.80;;;;;;;22.41;54.34;98463.88;2211675;80;21023;-80
2021/07/26 00:11:29;;;;;;;10.90;9.93;;;;;;;22.34;54.79;98462.41;2212581;80;20897;-80
2021/07/26 00:14:30;;;;;;;10.63;9.53;;;;;;;22.46;54.77;98467.67;2212605;80;21718;-80
2021/07/26 00:17:30;;;;;;;13.75;9.58;;;;;;;22.48;54.63;98460.50;2212490;80;20984;-81
2021/07/26 00:20:30;;;;;;;12.63;9.38;;;;;;;22.49;54.64;98464.89;2212330;80;20929;-81
2021/07/26 00:23:31;;;;;;;10.60;9.58;;;;;;;22.50;54.63;98466.62;2212412;80;20925;-80
2021/07/26 00:26:32;;;;;;;11.22;8.65;;;;;;;22.56;54.60;98471.70;2212494;80;20921;-80
2021/07/26 00:29:32;;;;;;;10.80;9.58;;;;;;;22.53;54.51;98464.69;2212245;80;20913;-80
2021/07/26 00:32:34;;;;;;;10.48;8.83;;;;;;;22.50;54.71;98451.52;2212404;80;20948;-82
2021/07/26 00:35:35;;;;;;;11.03;9.35;;;;;;;22.51;54.72;98451.06;2212336;81;21325;-80
2021/07/26 00:38:36;;;;;;;10.32;9.25;;;;;;;22.50;54.83;98459.97;2212026;80;20956;-79
2021/07/26 00:41:36;;;;;;;17.67;10.10;;;;;;;22.47;55.35;98465.41;2212231;80;20953;-82
2021/07/26 00:44:36;;;;;;;12.28;9.63;;;;;;;22.41;56.15;98467.87;2212076;81;20901;-80
2021/07/26 00:47:37;;;;;;;13.68;10.23;;;;;;;22.33;57.03;98476.63;2212113;80;20922;-79
2021/07/26 00:50:38;;;;;;;11.45;9.83;;;;;;;22.35;57.42;98489.86;2212180;81;20937;-80
2021/07/26 00:53:38;;;;;;;11.10;10.00;;;;;;;22.31;57.78;98490.91;2212168;81;20953;-79
2021/07/26 00:56:39;;;;;;;14.80;10.72;;;;;;;22.21;58.29;98493.95;2212049;81;20920;-80
2021/07/26 00:59:39;;;;;;;10.82;9.83;;;;;;;22.25;58.47;98478.73;2211915;81;20917;-81
2021/07/26 01:02:39;;;;;;;11.28;10.18;;;;;;;22.29;58.36;98483.47;2211940;80;20913;-80
2021/07/26 01:05:40;;;;;;;12.10;10.32;;;;;;;22.29;58.60;98485.66;2211758;80;20987;-81
2021/07/26 01:08:40;;;;;;;11.15;9.90;;;;;;;22.16;58.43;98489.28;2211776;81;21392;-80
2021/07/26 01:11:41;;;;;;;10.72;9.73;;;;;;;22.19;58.73;98483.84;2211839;81;20917;-81
2021/07/26 01:14:41;;;;;;;11.22;10.23;;;;;;;22.14;58.79;98484.49;2211828;80;20924;-80
2021/07/26 01:17:42;;;;;;;10.90;9.80;;;;;;;22.12;58.80;98475.72;2212169;81;20943;-80
2021/07/26 01:20:42;;;;;;;11.00;9.90;;;;;;;22.15;58.88;98470.27;2211449;80;21353;-80
2021/07/26 01:23:43;;;;;;;11.55;10.23;;;;;;;22.00;58.90;98469.53;2211924;80;20917;-81
2021/07/26 01:26:43;;;;;;;11.30;10.10;;;;;;;21.96;59.59;98462.61;2211991;81;21353;-81
2021/07/26 01:29:44;;;;;;;11.25;10.15;;;;;;;21.89;59.85;98454.48;2212057;81;20913;-81
2021/07/26 01:32:44;;;;;;;12.05;10.85;;;;;;;22.00;59.92;98462.89;2211998;81;20909;-82
2021/07/26 01:35:45;;;;;;;11.65;10.65;;;;;;;22.02;59.78;98456.19;2211808;81;20948;-80
2021/07/26 01:38:46;;;;;;;11.15;10.13;;;;;;;22.05;60.00;98451.64;2211746;81;21038;-81
2021/07/26 01:41:48;;;;;;;16.57;10.00;;;;;;;22.11;59.60;98447.41;2211777;81;20923;-80
2021/07/26 01:44:56;;;;;;;11.43;10.23;;;;;;;22.10;59.43;98435.05;2211677;81;21293;-81
2021/07/26 01:47:54;;;;;;;11.65;10.55;;;;;;;22.09;59.56;98433.31;2211264;80;20956;-80
2021/07/26 01:50:54;;;;;;;14.60;11.20;;;;;;;22.08;59.61;98434.70;2211854;81;20909;-80
2021/07/26 01:53:55;;;;;;;11.45;10.23;;;;;;;22.07;59.79;98432.51;2211977;81;20951;-80
2021/07/26 01:56:55;;;;;;;11.63;10.43;;;;;;;21.90;60.06;98433.16;2211746;81;20952;-81
2021/07/26 01:59:56;;;;;;;11.88;10.30;;;;;;;21.94;60.24;98431.25;2211848;81;20929;-80
2021/07/26 02:02:57;;;;;;;10.93;9.90;;;;;;;22.00;60.32;98428.80;2211376;81;20968;-80
2021/07/26 02:05:58;;;;;;;11.08;10.03;;;;;;;22.05;60.17;98424.20;2211725;80;21036;-80
2021/07/26 02:08:59;;;;;;;11.78;9.75;;;;;;;22.03;60.14;98428.25;2211673;81;21044;-81
2021/07/26 02:11:59;;;;;;;10.78;9.53;;;;;;;22.07;60.20;98433.84;2211889;80;21312;-80
2021/07/26 02:15:00;;;;;;;14.43;9.70;;;;;;;22.10;60.11;98435.05;2211886;80;20971;-80
2021/07/26 02:18:01;;;;;;;11.08;9.88;;;;;;;22.08;60.12;98435.57;2211918;81;20952;-82
2021/07/26 02:21:01;;;;;;;11.55;10.45;;;;;;;22.02;60.31;98430.47;2211861;80;20901;-81
2021/07/26 02:24:02;;;;;;;12.10;10.90;;;;;;;22.00;60.74;98432.80;2211985;81;20905;-80
2021/07/26 02:27:04;;;;;;;11.83;10.38;;;;;;;21.92;60.85;98432.64;2212008;81;20929;-81
2021/07/26 02:30:04;;;;;;;16.40;10.30;;;;;;;21.90;61.25;98434.95;2211871;81;21372;-81
2021/07/26 02:33:05;;;;;;;12.88;11.30;;;;;;;21.76;61.29;98429.33;2211910;81;20889;-81
2021/07/26 02:36:05;;;;;;;11.90;10.63;;;;;;;21.61;61.97;98426.32;2211936;81;20913;-80
2021/07/26 02:39:06;;;;;;;12.60;11.40;;;;;;;21.56;62.29;98415.02;2211702;81;21347;-79
2021/07/26 02:42:07;;;;;;;43.75;37.67;;;;;;;21.58;62.23;98418.48;2211985;81;21253;-82
2021/07/26 02:45:07;;;;;;;12.37;10.63;;;;;;;21.68;62.12;98410.17;2211999;81;20995;-80
2021/07/26 02:48:08;;;;;;;13.53;9.75;;;;;;;21.56;61.85;98408.84;2212032;81;20882;-81
2021/07/26 02:51:09;;;;;;;11.90;10.50;;;;;;;21.52;62.41;98401.45;2211781;81;21000;-81
2021/07/26 02:54:09;;;;;;;12.00;10.70;;;;;;;21.58;62.04;98389.27;2211885;81;20913;-81
2021/07/26 02:57:10;;;;;;;11.88;10.03;;;;;;;21.57;62.14;98387.99;2211705;81;20941;-82
2021/07/26 03:00:11;;;;;;;14.23;10.25;;;;;;;21.51;62.35;98380.27;2211751;81;20893;-82
2021/07/26 03:03:11;;;;;;;10.82;9.75;;;;;;;21.39;62.71;98371.45;2211875;81;20933;-82
2021/07/26 03:06:11;;;;;;;11.35;10.32;;;;;;;21.06;63.34;98373.59;2213292;80;20991;-82
2021/07/26 03:09:12;;;;;;;12.63;11.35;;;;;;;20.91;64.07;98381.66;2222367;80;21022;-80
2021/07/26 03:12:13;;;;;;;12.70;11.38;;;;;;;21.17;64.00;98386.86;2222309;80;20952;-80
2021/07/26 03:15:13;;;;;;;13.32;10.63;;;;;;;21.39;63.68;98396.68;2222377;80;20925;-80
2021/07/26 03:18:13;;;;;;;12.80;11.50;;;;;;;21.42;63.48;98420.46;2222779;80;20968;-80
2021/07/26 03:21:14;;;;;;;12.15;10.95;;;;;;;21.38;63.78;98430.33;2222394;80;21288;-79
2021/07/26 03:24:14;;;;;;;16.10;10.80;;;;;;;21.26;63.74;98430.34;2222390;80;20893;-80
2021/07/26 03:27:15;;;;;;;12.28;10.98;;;;;;;21.46;64.21;98441.52;2222489;80;20889;-80
2021/07/26 03:30:16;;;;;;;15.35;11.40;;;;;;;21.50;63.87;98445.79;2222287;80;20956;-81
2021/07/26 03:33:16;;;;;;;12.37;11.10;;;;;;;21.64;63.62;98454.55;2222181;80;20924;-81
2021/07/26 03:36:16;;;;;;;13.93;11.60;;;;;;;21.65;64.40;98463.38;2222274;80;20971;-80
2021/07/26 03:39:17;;;;;;;12.88;11.57;;;;;;;21.49;64.75;98454.69;2222173;80;21003;-81
2021/07/26 03:42:18;;;;;;;13.65;11.78;;;;;;;21.35;65.12;98458.33;2222112;80;20975;-80
2021/07/26 03:45:18;;;;;;;14.80;11.48;;;;;;;21.27;66.23;98450.65;2221835;80;20928;-82
2021/07/26 03:48:19;;;;;;;33.20;28.30;;;;;;;21.19;65.85;98450.50;2222503;80;20932;-80
2021/07/26 03:51:21;;;;;;;26.05;18.95;;;;;;;20.79;66.64;98453.23;2222320;80;20940;-81
2021/07/26 03:54:22;;;;;;;14.33;12.82;;;;;;;20.64;67.54;98455.10;2222265;80;20971;-81
2021/07/26 03:57:22;;;;;;;15.53;12.47;;;;;;;20.77;68.32;98461.71;2221974;80;21005;-81
2021/07/26 04:00:23;;;;;;;16.30;12.07;;;;;;;20.83;67.59;98460.66;2222494;80;20944;-82
2021/07/26 04:03:30;;;;;;;14.05;12.58;;;;;;;20.81;67.91;98464.70;2222529;80;21323;-80
2021/07/26 04:06:26;;;;;;;14.38;12.05;;;;;;;20.80;67.98;98471.34;2219790;79;20941;-82
2021/07/26 04:09:32;;;;;;;13.75;12.03;;;;;;;20.80;68.19;98478.84;2211611;81;21003;-80
2021/07/26 04:12:33;;;;;;;17.20;12.82;;;;;;;20.61;67.86;98500.29;2210897;80;20932;-81
2021/07/26 04:15:34;;;;;;;18.95;14.10;;;;;;;20.23;68.67;98503.72;2211729;81;20901;-81
2021/07/26 04:18:34;;;;;;;14.58;13.18;;;;;;;20.29;70.39;98497.36;2212032;81;20929;-81
2021/07/26 04:21:35;;;;;;;18.23;13.05;;;;;;;20.47;69.55;98490.61;2211073;81;20988;-82
2021/07/26 04:24:35;;;;;;;13.98;12.58;;;;;;;20.53;69.01;98475.36;2211464;81;21333;-81
2021/07/26 04:27:36;;;;;;;14.50;12.98;;;;;;;20.58;69.33;98481.83;2211574;81;21300;-81
2021/07/26 04:30:36;;;;;;;14.75;13.22;;;;;;;20.65;69.23;98492.64;2211865;81;20933;-81
2021/07/26 04:33:40;;;;;;;15.28;13.70;;;;;;;20.41;69.64;98489.03;2211742;81;20944;-81
2021/07/26 04:36:40;;;;;;;16.57;13.45;;;;;;;20.50;69.88;98485.20;2211923;81;21016;-81
2021/07/26 04:39:43;;;;;;;15.58;13.83;;;;;;;20.61;69.60;98488.36;2211420;81;21027;-82
2021/07/26 04:42:44;;;;;;;21.82;19.67;;;;;;;20.71;69.40;98483.14;2211923;81;20985;-82
2021/07/26 04:45:45;;;;;;;20.02;17.75;;;;;;;20.81;69.30;98500.50;2211157;81;20936;-82
2021/07/26 04:48:45;;;;;;;15.85;14.23;;;;;;;20.85;69.80;98496.82;2211810;81;20941;-82
2021/07/26 04:51:46;;;;;;;15.25;13.58;;;;;;;20.83;69.30;98498.66;2211793;81;20965;-83
2021/07/26 04:54:46;;;;;;;17.57;15.48;;;;;;;20.87;69.03;98488.35;2211873;81;20947;-81
2021/07/26 04:57:47;;;;;;;17.10;14.13;;;;;;;20.81;69.53;98491.67;2211731;81;20963;-81
2021/07/26 05:00:47;;;;;;;16.15;14.30;;;;;;;20.85;69.44;98488.00;2212175;81;20913;-81
2021/07/26 05:03:48;;;;;;;15.45;13.80;;;;;;;20.88;69.31;98499.37;2211898;81;20941;-83
2021/07/26 05:06:48;;;;;;;16.55;14.63;;;;;;;20.87;69.59;98506.92;2214904;80;20972;-82
2021/07/26 05:09:49;;;;;;;16.23;14.63;;;;;;;20.87;69.59;98506.92;2223011;80;21034;-83
2021/07/26 05:12:49;;;;;;;28.17;20.52;;;;;;;20.85;69.76;98516.72;2222180;80;20964;-82
2021/07/26 05:15:50;;;;;;;46.13;40.23;;;;;;;20.93;70.02;98511.14;2222398;80;20925;-82
2021/07/26 05:18:54;;;;;;;20.35;17.92;;;;;;;20.94;69.85;98517.72;2222330;80;20984;-84
2021/07/26 05:21:53;;;;;;;19.60;17.48;;;;;;;20.99;69.89;98514.45;2221481;80;20998;-82
2021/07/26 05:24:54;;;;;;;16.90;15.25;;;;;;;20.96;69.29;98515.88;2224235;80;20976;-83
2021/07/26 05:27:54;;;;;;;15.95;14.43;;;;;;;20.98;69.71;98520.67;2224608;80;20967;-83
2021/07/26 05:30:55;;;;;;;15.95;14.40;;;;;;;21.08;70.05;98523.88;2224278;80;21573;-83
2021/07/26 05:33:55;;;;;;;16.20;14.53;;;;;;;21.16;69.72;98520.94;2223441;80;20892;-83
2021/07/26 05:36:56;;;;;;;16.15;14.45;;;;;;;21.21;69.48;98509.70;2224005;80;21074;-82
2021/07/26 05:39:59;;;;;;;16.65;14.95;;;;;;;21.25;69.23;98520.18;2224066;80;21036;-83
2021/07/26 05:43:00;;;;;;;15.40;13.83;;;;;;;21.25;68.93;98531.26;2223736;80;20976;-81
2021/07/26 05:46:00;;;;;;;16.07;14.38;;;;;;;21.14;69.64;98533.40;2222569;80;20953;-81
2021/07/26 05:49:01;;;;;;;16.12;14.63;;;;;;;21.18;70.61;98535.89;2222512;80;20957;-81
2021/07/26 05:52:01;;;;;;;18.48;15.18;;;;;;;21.23;70.46;98535.30;2222423;80;20959;-81
2021/07/26 05:55:02;;;;;;;16.20;14.60;;;;;;;21.31;70.02;98535.02;2222333;80;20916;-80
2021/07/26 05:58:04;;;;;;;17.42;15.13;;;;;;;21.39;69.81;98530.76;2221986;80;20983;-80
2021/07/26 06:04:22;;;;;;;18.92;15.58;;;;;;;21.52;69.82;98531.58;2191715;80;20940;-81
2021/07/26 06:07:23;;;;;;;15.95;14.35;;;;;;;21.67;69.72;98533.25;2222057;80;21015;-80
2021/07/26 06:10:23;;;;;;;16.82;14.10;;;;;;;21.77;69.23;98528.89;2222654;80;20896;-83
2021/07/26 06:13:24;;;;;;;18.40;15.08;;;;;;;21.89;69.30;98532.41;2222925;80;20940;-83
2021/07/26 06:16:26;;;;;;;44.20;32.60;;;;;;;22.04;68.95;98527.45;2192248;80;20948;-82
2021/07/26 06:19:33;;;;;;;26.00;22.27;;;;;;;22.35;68.69;98536.39;2222737;80;20932;-84
2021/07/26 06:22:34;;;;;;;16.97;15.28;;;;;;;22.61;67.92;98528.23;2222938;80;20990;-83
2021/07/26 06:25:34;;;;;;;16.45;14.63;;;;;;;22.85;67.55;98537.87;2221869;80;20965;-82
2021/07/26 06:28:36;;;;;;;17.12;12.80;;;;;;;23.15;66.67;98532.16;2222103;80;20928;-82
2021/07/26 06:31:36;;;;;;;13.08;11.70;;;;;;;23.35;66.35;98533.47;2222156;80;20955;-82
2021/07/26 06:34:37;;;;;;;16.48;12.30;;;;;;;23.68;65.60;98533.81;2222308;80;21296;-82
2021/07/26 06:37:38;;;;;;;14.30;11.97;;;;;;;23.99;64.33;98543.04;2221828;80;20999;-81
2021/07/26 06:40:38;;;;;;;20.30;15.90;;;;;;;24.13;63.47;98535.25;2221657;80;20936;-81
2021/07/26 06:43:39;;;;;;;11.25;10.15;;;;;;;24.39;62.59;98533.59;2221794;80;20963;-80
2021/07/26 06:46:39;;;;;;;11.00;9.78;;;;;;;24.54;62.06;98535.97;2222509;80;21299;-82
2021/07/26 06:49:40;;;;;;;9.90;8.55;;;;;;;24.60;62.00;98532.99;2222537;80;20920;-82
2021/07/26 06:52:40;;;;;;;11.35;9.48;;;;;;;24.43;61.71;98532.97;2222325;80;20968;-82
2021/07/26 06:55:41;;;;;;;10.20;9.15;;;;;;;24.28;61.58;98531.05;2222394;80;20920;-81
2021/07/26 06:58:42;;;;;;;24.35;10.28;;;;;;;24.42;62.09;98533.91;2222284;80;21107;-80
2021/07/26 07:01:43;;;;;;;12.00;9.48;;;;;;;24.44;62.28;98534.22;2221787;80;20975;-81
2021/07/26 07:04:43;;;;;;;13.32;9.25;;;;;;;24.49;61.90;98534.47;2221638;80;20944;-81
2021/07/26 07:07:44;;;;;;;10.18;9.28;;;;;;;24.60;61.61;98533.46;2218231;80;21043;-83
2021/07/26 07:10:44;;;;;;;16.40;13.20;;;;;;;24.85;61.10;98529.95;2211462;80;20928;-80
2021/07/26 07:13:45;;;;;;;12.25;9.23;;;;;;;24.85;60.53;98533.09;2210996;81;20913;-81
2021/07/26 07:16:46;;;;;;;9.90;8.98;;;;;;;25.00;60.27;98529.67;2211391;81;21020;-82
2021/07/26 07:19:48;;;;;;;19.12;8.85;;;;;;;25.26;60.16;98532.35;2211991;80;20909;-82
2021/07/26 07:22:52;;;;;;;9.85;8.78;;;;;;;25.57;58.95;98537.79;2212255;81;21336;-82
2021/07/26 07:25:54;;;;;;;11.93;8.93;;;;;;;25.59;59.10;98532.36;2212108;80;20988;-82
2021/07/26 07:28:54;;;;;;;14.60;7.83;;;;;;;25.91;58.95;98534.17;2211683;81;20929;-82
2021/07/26 07:31:55;;;;;;;11.97;7.95;;;;;;;26.25;58.13;98535.86;2211794;81;20929;-82
2021/07/26 07:34:55;;;;;;;12.65;8.10;;;;;;;26.25;57.02;98535.86;2212369;81;20897;-81
2021/07/26 07:37:56;;;;;;;10.55;7.05;;;;;;;26.62;56.38;98537.31;2211401;80;20991;-81
2021/07/26 07:40:58;;;;;;;8.80;7.35;;;;;;;26.86;54.20;98539.03;2212016;80;21157;-81
2021/07/26 07:43:58;;;;;;;10.23;9.08;;;;;;;26.72;55.05;98536.78;2211916;81;20901;-82
2021/07/26 07:47:00;;;;;;;9.98;8.88;;;;;;;26.51;55.09;98542.42;2211765;80;20963;-82
2021/07/26 07:50:02;;;;;;;13.85;9.15;;;;;;;26.48;55.45;98537.25;2211919;81;20952;-82
2021/07/26 07:53:03;;;;;;;7.62;6.92;;;;;;;26.63;55.06;98541.72;2211781;80;20975;-80
2021/07/26 07:56:04;;;;;;;7.53;6.80;;;;;;;26.76;55.09;98532.97;2211132;80;21368;-82
2021/07/26 07:59:07;;;;;;;7.58;6.87;;;;;;;27.07;54.73;98538.77;2211439;81;20913;-81
2021/07/26 08:02:08;;;;;;;8.18;6.70;;;;;;;27.49;53.63;98537.50;2211687;80;21016;-81
2021/07/26 08:05:08;;;;;;;7.47;6.78;;;;;;;27.50;53.34;98536.54;2212109;80;21377;-81
2021/07/26 08:08:09;;;;;;;13.58;7.20;;;;;;;27.45;53.56;98535.09;2215731;80;21016;-82
2021/07/26 08:11:10;;;;;;;8.95;6.55;;;;;;;27.69;52.67;98530.92;2221988;80;20967;-82
2021/07/26 08:14:10;;;;;;;7.70;6.30;;;;;;;27.69;52.41;98533.61;2221525;80;21292;-82
2021/07/26 08:17:11;;;;;;;28.02;8.23;;;;;;;27.66;51.94;98532.94;2221902;80;21356;-82
2021/07/26 08:20:12;;;;;;;6.62;6.00;;;;;;;27.82;51.61;98530.57;2221745;80;21347;-79
2021/07/26 08:23:12;;;;;;;6.87;5.72;;;;;;;28.10;51.29;98535.03;2220762;80;20967;-82
2021/07/26 08:26:13;;;;;;;5.55;5.08;;;;;;;28.04;49.73;98532.75;2221362;80;20980;-82
2021/07/26 08:29:13;;;;;;;5.08;4.67;;;;;;;28.28;49.58;98526.78;2221627;80;20943;-82
2021/07/26 08:32:14;;;;;;;6.90;5.37;;;;;;;28.23;48.93;98526.60;2221447;80;20963;-80
2021/07/26 08:35:14;;;;;;;5.60;5.00;;;;;;;28.20;48.75;98515.17;2221378;80;20976;-81
2021/07/26 08:38:15;;;;;;;6.00;5.20;;;;;;;28.41;48.69;98522.34;2221333;80;21030;-81
2021/07/26 08:41:15;;;;;;;6.95;5.33;;;;;;;28.55;48.15;98527.17;2221984;80;20897;-83
2021/07/26 08:44:16;;;;;;;5.97;5.00;;;;;;;28.67;48.30;98530.04;2221900;80;20976;-82
2021/07/26 08:47:16;;;;;;;7.53;4.80;;;;;;;28.92;46.98;98530.14;2221450;80;20944;-81
2021/07/26 08:50:17;;;;;;;6.87;4.90;;;;;;;28.73;46.94;98533.66;2221817;80;20944;-81
2021/07/26 08:53:19;;;;;;;6.85;5.05;;;;;;;28.67;46.51;98532.72;2222163;80;20916;-82
2021/07/26 08:56:20;;;;;;;7.20;5.08;;;;;;;28.51;47.01;98528.82;2222608;80;21026;-82
2021/07/26 08:59:20;;;;;;;13.35;4.87;;;;;;;28.34;47.74;98540.66;2222817;80;21307;-82
2021/07/26 09:02:21;;;;;;;7.22;5.20;;;;;;;28.17;47.95;98535.50;2222653;80;20955;-82
2021/07/26 09:05:21;;;;;;;84.70;10.32;;;;;;;27.91;48.50;98547.42;2222733;80;20925;-81
2021/07/26 09:08:22;;;;;;;7.87;5.17;;;;;;;27.62;48.92;98540.31;2218323;80;21082;-81
2021/07/26 09:11:22;;;;;;;5.12;4.62;;;;;;;27.28;49.17;98557.09;2210938;80;20960;-81
2021/07/26 09:14:23;;;;;;;5.50;5.00;;;;;;;26.98;49.79;98554.91;2211153;80;20924;-80
2021/07/26 09:17:23;;;;;;;7.83;6.08;;;;;;;26.82;50.45;98553.55;2211789;80;20964;-81
2021/07/26 09:20:28;;;;;;;8.38;5.60;;;;;;;26.76;50.57;98553.05;2211641;80;20913;-80
2021/07/26 09:23:26;;;;;;;11.07;6.50;;;;;;;26.61;50.79;98557.00;2211245;80;21004;-81
2021/07/26 09:26:27;;;;;;;7.28;5.67;;;;;;;26.28;51.51;98558.90;2211623;80;20913;-80
2021/07/26 09:29:28;;;;;;;6.58;5.97;;;;;;;25.87;52.50;98571.39;2211169;80;20968;-80
2021/07/26 09:32:28;;;;;;;7.25;6.55;;;;;;;25.51;53.55;98574.20;2211716;80;20944;-79
2021/07/26 09:35:29;;;;;;;8.20;6.40;;;;;;;25.46;53.68;98575.38;2211443;80;20973;-79
2021/07/26 09:38:29;;;;;;;6.85;6.22;;;;;;;25.60;53.63;98577.72;2211507;80;20975;-80
2021/07/26 09:41:30;;;;;;;9.90;6.50;;;;;;;25.73;53.42;98575.28;2211270;80;20948;-80
2021/07/26 09:44:30;;;;;;;6.65;5.45;;;;;;;25.67;53.54;98582.30;2211586;80;20941;-80
2021/07/26 09:47:31;;;;;;;9.85;6.00;;;;;;;25.68;53.43;98582.69;2211284;80;20956;-79
2021/07/26 09:50:31;;;;;;;7.70;5.62;;;;;;;25.75;53.05;98587.23;2211161;81;21373;-81
2021/07/26 09:53:32;;;;;;;5.78;5.17;;;;;;;25.87;52.55;98584.75;2211314;80;21078;-79
2021/07/26 09:56:33;;;;;;;8.23;4.05;;;;;;;25.95;51.78;98591.02;2211674;80;20940;-81
2021/07/26 09:59:33;;;;;;;4.15;3.40;;;;;;;25.94;51.52;98595.98;2211415;81;20975;-80
2021/07/26 10:02:35;;;;;;;5.75;3.52;;;;;;;25.87;51.24;98602.14;2211022;80;20944;-80
2021/07/26 10:05:36;;;;;;;5.47;3.70;;;;;;;25.97;51.87;98593.14;2211682;80;21395;-82
2021/07/26 10:08:36;;;;;;;4.10;3.22;;;;;;;26.09;52.32;98598.32;2215093;80;21046;-79
2021/07/26 10:11:37;;;;;;;4.30;3.90;;;;;;;26.39;51.99;98599.33;2221307;80;20951;-79
2021/07/26 10:14:37;;;;;;;3.90;3.60;;;;;;;26.56;50.92;98596.56;2221793;80;20959;-80
2021/07/26 10:17:38;;;;;;;14.05;7.65;;;;;;;26.70;50.24;98596.24;2221540;80;20995;-80
2021/07/26 10:20:39;;;;;;;6.03;4.78;;;;;;;26.89;50.38;98595.59;2221846;80;21355;-79
2021/07/26 10:23:40;;;;;;;7.17;4.55;;;;;;;27.15;49.97;98601.66;2222003;80;20913;-80
2021/07/26 10:26:40;;;;;;;6.90;4.58;;;;;;;27.16;49.55;98601.17;2221838;80;21367;-80
2021/07/26 10:29:41;;;;;;;5.53;4.78;;;;;;;27.01;49.10;98592.23;2221564;80;21364;-81
2021/07/26 10:32:41;;;;;;;52.33;9.20;;;;;;;27.02;49.48;98591.28;2221371;80;20968;-79
2021/07/26 10:35:42;;;;;;;13.50;4.83;;;;;;;27.18;49.37;98590.75;2221177;80;20912;-78
2021/07/26 10:38:43;;;;;;;5.62;4.72;;;;;;;27.31;49.11;98592.70;2220807;80;20988;-78
2021/07/26 10:41:43;;;;;;;10.78;6.40;;;;;;;27.36;48.95;98594.62;2220787;80;21619;-79
2021/07/26 10:44:44;;;;;;;11.50;6.50;;;;;;;27.40;48.86;98588.98;2220930;80;21024;-79
2021/07/26 10:47:45;;;;;;;45.40;16.30;;;;;;;27.62;48.69;98591.25;2221071;80;20960;-79
2021/07/26 10:50:45;;;;;;;12.43;5.50;;;;;;;27.87;48.03;98584.78;2222206;80;20987;-77
2021/07/26 10:53:46;;;;;;;13.88;5.50;;;;;;;28.16;47.52;98583.42;2221851;80;20935;-79
2021/07/26 10:56:46;;;;;;;4.83;4.33;;;;;;;28.44;47.31;98583.39;2221877;80;20963;-79
2021/07/26 10:59:47;;;;;;;9.48;5.53;;;;;;;28.53;45.93;98574.74;2221542;80;21570;-79
2021/07/26 11:02:48;;;;;;;9.13;4.75;;;;;;;28.53;46.73;98578.77;2221244;80;20978;-78
2021/07/26 11:05:48;;;;;;;5.17;4.72;;;;;;;28.91;46.36;98574.09;2221889;80;20920;-79
2021/07/26 11:08:48;;;;;;;5.10;4.60;;;;;;;29.01;45.24;98565.78;2221731;80;21031;-79
2021/07/26 11:11:49;;;;;;;5.28;4.78;;;;;;;28.91;45.41;98567.86;2221636;80;20940;-78
2021/07/26 11:14:49;;;;;;;11.68;5.35;;;;;;;29.00;45.30;98572.12;2221364;80;21384;-78
2021/07/26 11:17:50;;;;;;;6.53;5.05;;;;;;;28.98;44.92;98574.05;2221465;80;21346;-79
2021/07/26 11:20:50;;;;;;;9.18;4.65;;;;;;;29.45;44.74;98574.01;2221495;80;20933;-79
2021/07/26 11:23:51;;;;;;;11.90;5.10;;;;;;;29.76;43.41;98562.85;2221652;80;20944;-79
2021/07/26 11:26:52;;;;;;;9.90;5.47;;;;;;;29.64;42.90;98574.96;2221155;80;20940;-79
2021/07/26 11:29:52;;;;;;;17.05;5.58;;;;;;;29.18;44.21;98581.63;2220970;80;20940;-79
2021/07/26 11:32:53;;;;;;;8.28;5.42;;;;;;;29.02;43.79;98572.88;2221353;80;21360;-80
2021/07/26 11:35:54;;;;;;;14.80;5.70;;;;;;;28.84;45.03;98579.49;2221827;80;21293;-79
2021/07/26 11:38:54;;;;;;;18.27;6.50;;;;;;;29.12;44.89;98570.44;2221818;80;20983;-79
2021/07/26 11:41:55;;;;;;;7.03;5.00;;;;;;;28.85;45.07;98571.81;2221821;80;20934;-79
2021/07/26 11:44:55;;;;;;;6.28;5.30;;;;;;;28.69;45.42;98566.56;2221562;80;20924;-81
2021/07/26 11:47:59;;;;;;;5.95;5.40;;;;;;;28.70;45.58;98570.98;2221679;80;20940;-79
2021/07/26 11:50:58;;;;;;;5.12;4.60;;;;;;;28.73;45.56;98573.94;2221594;80;20992;-80
2021/07/26 11:53:59;;;;;;;8.55;5.97;;;;;;;28.32;45.84;98565.88;2222135;80;20959;-79
2021/07/26 11:56:59;;;;;;;6.60;4.97;;;;;;;28.38;46.28;98564.14;2221571;80;20931;-80
2021/07/26 12:00:05;;;;;;;5.87;5.28;;;;;;;28.40;46.58;98566.25;2222096;80;20909;-82
2021/07/26 12:03:02;;;;;;;6.33;4.80;;;;;;;28.54;45.82;98560.36;2220915;80;20999;-81
2021/07/26 12:06:02;;;;;;;5.37;4.65;;;;;;;28.52;45.90;98563.62;2221134;80;21053;-80
2021/07/26 12:09:03;;;;;;;4.67;4.30;;;;;;;28.78;45.08;98553.02;2217406;80;21019;-81
2021/07/26 12:12:03;;;;;;;4.92;4.42;;;;;;;29.13;44.46;98561.41;2211260;80;20971;-80
2021/07/26 12:15:04;;;;;;;4.85;4.37;;;;;;;29.36;44.13;98555.31;2211759;80;21313;-80
2021/07/26 12:18:05;;;;;;;6.00;3.75;;;;;;;29.63;42.91;98555.28;2211598;80;21451;-79
2021/07/26 12:21:05;;;;;;;4.60;4.20;;;;;;;29.58;41.48;98556.56;2211104;81;21309;-79
2021/07/26 12:27:08;;;;;;;6.53;4.85;;;;;;;29.74;42.42;98558.06;2189988;81;20936;-81
2021/07/26 12:30:10;;;;;;;4.95;4.55;;;;;;;29.98;42.03;98557.28;2211595;80;20885;-82
2021/07/26 12:33:12;;;;;;;7.97;4.75;;;;;;;29.91;41.77;98556.00;2210984;81;21127;-79
2021/07/26 12:36:12;;;;;;;5.95;4.90;;;;;;;29.97;41.53;98555.08;2210969;81;21031;-80
2021/07/26 12:39:13;;;;;;;5.03;4.62;;;;;;;30.02;41.25;98553.44;2211330;80;21378;-79
2021/07/26 12:42:14;;;;;;;6.05;4.20;;;;;;;30.04;41.56;98558.22;2211439;81;20936;-81
2021/07/26 12:45:14;;;;;;;5.08;4.65;;;;;;;30.33;39.74;98542.64;2211530;80;20936;-81
2021/07/26 12:48:15;;;;;;;4.17;3.87;;;;;;;30.17;39.92;98555.02;2211611;81;21040;-82
2021/07/26 12:51:15;;;;;;;4.37;3.80;;;;;;;30.01;40.83;98551.23;2212254;80;20920;-81
2021/07/26 12:54:16;;;;;;;4.60;4.22;;;;;;;29.97;40.36;98540.28;2212608;80;20920;-82
2021/07/26 12:57:25;;;;;;;4.90;4.50;;;;;;;29.98;40.81;98555.94;2212148;81;20992;-81
2021/07/26 13:00:25;;;;;;;4.60;3.98;;;;;;;30.18;41.30;98556.73;2211447;81;21036;-80
2021/07/26 13:03:25;;;;;;;5.20;3.98;;;;;;;30.32;40.25;98543.13;2211279;80;21293;-81
2021/07/26 13:06:26;;;;;;;6.95;3.90;;;;;;;30.47;40.22;98551.08;2211180;80;21399;-80
2021/07/26 13:09:26;;;;;;;5.10;3.67;;;;;;;30.59;39.06;98536.25;2210537;80;21015;-81
2021/07/26 13:12:27;;;;;;;4.33;3.98;;;;;;;30.60;38.00;98543.84;2211108;80;20928;-82
2021/07/26 13:15:28;;;;;;;3.67;3.37;;;;;;;30.41;38.29;98546.52;2211529;80;21389;-81
2021/07/26 13:18:28;;;;;;;3.77;3.47;;;;;;;30.37;38.81;98541.48;2211671;81;21384;-82
2021/07/26 13:21:28;;;;;;;3.62;3.30;;;;;;;30.44;38.69;98542.74;2212153;80;20933;-81
2021/07/26 13:24:29;;;;;;;5.37;3.67;;;;;;;30.32;38.86;98545.82;2212317;80;20917;-83
2021/07/26 13:27:29;;;;;;;5.22;4.10;;;;;;;30.28;39.06;98551.05;2212291;80;20920;-81
2021/07/26 13:30:30;;;;;;;5.50;4.35;;;;;;;30.39;39.46;98551.16;2212445;80;20980;-80
2021/07/26 13:33:31;;;;;;;4.75;4.15;;;;;;;30.28;39.31;98544.33;2212100;80;20968;-82
2021/07/26 13:36:31;;;;;;;4.62;4.22;;;;;;;30.19;39.82;98549.03;2212340;80;20924;-82
2021/07/26 13:39:31;;;;;;;4.50;4.10;;;;;;;30.03;40.02;98553.81;2212345;80;21348;-80
2021/07/26 13:42:32;;;;;;;5.80;4.00;;;;;;;30.26;40.17;98544.06;2212136;81;21313;-82
2021/07/26 13:45:33;;;;;;;4.62;4.22;;;;;;;30.28;39.46;98544.81;2212562;80;20964;-81
2021/07/26 13:48:33;;;;;;;4.67;4.12;;;;;;;30.30;39.05;98543.73;2212401;81;20952;-80
2021/07/26 13:51:34;;;;;;;4.47;4.05;;;;;;;30.36;39.33;98541.96;2212256;81;20996;-81
2021/07/26 13:54:35;;;;;;;5.70;4.10;;;;;;;30.45;39.89;98535.03;2211601;80;20936;-82
2021/07/26 13:57:35;;;;;;;4.95;4.28;;;;;;;30.47;38.98;98536.27;2212257;81;21027;-81
2021/07/26 14:00:36;;;;;;;4.45;3.85;;;;;;;29.99;39.51;98539.68;2211998;81;20964;-80
2021/07/26 14:03:36;;;;;;;4.42;4.03;;;;;;;29.86;40.02;98536.64;2211831;80;20984;-81
2021/07/26 14:06:37;;;;;;;4.50;4.03;;;;;;;30.25;40.34;98526.19;2212269;80;20933;-81